Altamont, KS

7:23 PM CDT on October 01, 2014 (GMT -0500)
KKSCHETO2 | Change Station
CLOSE
Current Station
Personal Weather Station
Location: Chetopa, KS
Elevation: 831 ft
Nearby Weather Stations

Elev 831 ft 37.07 °N, 95.16 °W | Updated 8 minutes ago

Clear
Clear
79.2 °F
Feels Like 82 °F
N
9.0
Wind Variable Wind from South
Gusts 12.0 mph

Today
High -- | Low -- °F
--% Chance of Precip.
Yesterday
High -- | Low -- °F
Precip. -- in
7:16 AM 7:04 PM
First Quarter, 52% visible
Pressure 29.70 in
Visibility 10.0 miles
Clouds Scattered Clouds 3100 ft
Scattered Clouds 5500 ft
Mostly Cloudy 9500 ft
Heat Index 82 °F
Dew Point 71 °F
Humidity 76%
Rainfall 0.40 in
Snow Depth Not available.
UV 0 out of 12
Pollen 7.90 out of 12
Air Quality Not available.
Flu Activity Not available.
SPECI KPPF 020016Z AUTO VRB03KT 10SM VCTS -RA SCT031 SCT055 BKN095 24/22 A2970 RMK AO2 LTG DSNT SW P0000 T02440217

More Conditions Fewer Conditions

Pressure 29.70 in
Visibility 10.0 miles
Clouds Scattered Clouds 3100 ft
Scattered Clouds 5500 ft
Mostly Cloudy 9500 ft
Heat Index 82 °F
Dew Point 71 °F
Humidity 76%
Rainfall 0.40 in
Snow Depth Not available.
UV 0 out of 12
Pollen 7.90 out of 12
Air Quality Not available.
Flu Activity Not available.
SPECI KPPF 020016Z AUTO VRB03KT 10SM VCTS -RA SCT031 SCT055 BKN095 24/22 A2970 RMK AO2 LTG DSNT SW P0000 T02440217

More Conditions Fewer Conditions

10-Day Weather Forecast

Almanac

Astronomy

Oct. 01, 2014 Rise Set
Actual Time 7:16 AM CDT 7:04 PM CDT
Civil Twilight 6:50 AM CDT 7:30 PM CDT
Nautical Twilight 6:20 AM CDT 8:00 PM CDT
Astronomical Twilight 5:50 AM CDT 8:30 PM CDT
Moon 2:12 PM CDT (10/1) No Moon Set
Length of Visible Light 12h 39m
Length of Day
11h 47m
Tomorrow will be 2m 22s shorter.
First Quarter, 52% of the Moon is Illuminated
Today
First Quarter
Oct 8
Full
Oct 15
Last Quarter
Oct 23
New
Oct 30
First Quarter

Today's Extremes

State Highs State Lows

Community

WunderPhotos

Upload Photos

1,758,097 photos uploaded!

WunderBlogs® & News

Nearby

Snow Depth

Station Depth Elevation
No new snow has been reported.

Earthquake Activity

City Distance Mag. Time & Date
Perry, Oklahoma 116 miles 2.8 4:17 PM CDT
2014-10-01
Parsons, Kansas 13 miles 3.0 7:33 PM CDT
2014-09-30
Perry, Oklahoma 128 miles 2.6 2:34 PM CDT
2014-09-30
Yale, Oklahoma 103 miles 2.6 11:29 AM CDT
2014-09-30
Minimum magnitude displayed is 2.5.

Coastal Water Temperatures

Place Temperature
No Stations Reporting

Nearby Weather Stations